Vinings, Georgia
Current Conditions -  °F | °C
As of 3:58 AM on Friday 24 Oct 2014 (Local Time) from KMGE Reporting Station
Overcast Overcast  
Wind Chill:   Ceiling: 21000
Heat Index:   Visibility: 10mi
Dew Point:   Wind: 3mph
Humidity: 92%   Direction: 270°W
Pressure: 30.04"   Gusts: NA
Location:  33.87°N, 84.47°W
Report Text: KMGE 240758Z AUTO 27003KT 10SM OVC210 08/07 A3004 RMK AO2 SLP171 T00840071 $
Loading
Personal Weather Stations






























Interactive Weather Map
Tropical Storm Tracking
New forecast layout! Learn more

10-Day Weather Forecast

Advertisements
Track Severe Weather on mobile